Time;durP1;ratioP1;P1;durP2;ratioP2;P2;SDS_P1;SDS_P2;PMS_P1;PMS_P2;Temp;Humidity;BMP_temperature;BMP_pressure;BME280_temperature;BME280_humidity;BME280_pressure;Samples;Min_cycle;Max_cycle;Signal;HPM_P1;HPM_P2
2022/06/14 00:03:05;;;;;;;13.88;8.07;;;;;;;;;;5048287;28;20056;-79
2022/06/14 00:05:30;;;;;;;10.27;9.07;;;;;;;;;;5046380;28;20484;-77
2022/06/14 00:07:56;;;;;;;14.77;13.40;;;;;;;;;;5048708;28;20767;-78
2022/06/14 00:10:21;;;;;;;70.63;60.60;;;;;;;;;;5045256;28;20051;-78
2022/06/14 00:12:47;;;;;;;119.05;93.68;;;;;;;;;;5048670;28;20486;-78
2022/06/14 00:15:12;;;;;;;58.63;52.20;;;;;;;;;;5045724;28;20048;-78
2022/06/14 00:17:38;;;;;;;87.03;74.28;;;;;;;;;;5042803;28;20090;-79
2022/06/14 00:20:03;;;;;;;67.82;60.45;;;;;;;;;;5046611;28;20032;-76
2022/06/14 00:22:29;;;;;;;45.45;39.60;;;;;;;;;;5047799;28;20037;-77
2022/06/14 00:24:55;;;;;;;41.67;37.15;;;;;;;;;;5042682;28;20048;-77
2022/06/14 00:27:20;;;;;;;15.48;13.88;;;;;;;;;;5048707;28;20037;-77
2022/06/14 00:29:45;;;;;;;11.90;9.95;;;;;;;;;;5049897;28;20021;-77
2022/06/14 00:32:11;;;;;;;12.38;9.75;;;;;;;;;;5049588;28;20078;-76
2022/06/14 00:34:36;;;;;;;10.60;8.98;;;;;;;;;;5049292;28;20047;-78
2022/06/14 00:37:02;;;;;;;12.38;9.30;;;;;;;;;;5051191;28;20468;-78
2022/06/14 00:39:29;;;;;;;10.80;9.68;;;;;;;;;;5047624;28;20013;-76
2022/06/14 00:41:55;;;;;;;12.57;9.93;;;;;;;;;;5050544;28;20076;-76
2022/06/14 00:44:24;;;;;;;12.55;10.40;;;;;;;;;;5046466;28;20057;-77
2022/06/14 00:47:00;;;;;;;10.60;9.50;;;;;;;;;;5050423;28;20037;-80
2022/06/14 00:49:27;;;;;;;10.88;8.68;;;;;;;;;;5036160;28;20033;-77
2022/06/14 00:51:55;;;;;;;10.27;9.27;;;;;;;;;;5050322;28;20064;-77
2022/06/14 00:54:21;;;;;;;10.27;8.98;;;;;;;;;;5047270;28;20546;-77
2022/06/14 00:56:48;;;;;;;9.05;8.10;;;;;;;;;;5048869;28;20108;-77
2022/06/14 00:59:15;;;;;;;11.63;8.05;;;;;;;;;;5039098;28;20131;-77
2022/06/14 01:01:41;;;;;;;14.02;8.18;;;;;;;;;;5043998;28;20411;-77
2022/06/14 01:04:12;;;;;;;8.80;8.00;;;;;;;;;;5049839;28;20079;-77
2022/06/14 01:06:38;;;;;;;8.15;7.10;;;;;;;;;;5034369;28;20036;-77
2022/06/14 01:09:05;;;;;;;8.38;7.28;;;;;;;;;;5049913;28;20396;-77
2022/06/14 01:11:34;;;;;;;8.00;7.30;;;;;;;;;;5043972;28;20041;-75
2022/06/14 01:14:00;;;;;;;7.78;7.05;;;;;;;;;;5045708;28;20039;-76
2022/06/14 01:16:25;;;;;;;8.18;7.38;;;;;;;;;;5037384;28;20424;-76
2022/06/14 01:18:51;;;;;;;10.18;7.45;;;;;;;;;;5034110;28;20032;-76
2022/06/14 01:21:16;;;;;;;9.75;6.63;;;;;;;;;;5051686;28;20040;-77
2022/06/14 01:23:42;;;;;;;18.42;6.78;;;;;;;;;;5049185;28;20032;-77
2022/06/14 01:26:11;;;;;;;12.95;7.10;;;;;;;;;;5051667;28;20039;-77
2022/06/14 01:28:37;;;;;;;31.25;7.28;;;;;;;;;;5017209;28;20553;-77
2022/06/14 01:31:02;;;;;;;29.98;7.00;;;;;;;;;;5049089;28;20032;-77
2022/06/14 01:33:36;;;;;;;24.88;7.82;;;;;;;;;;5050250;28;20064;-78
2022/06/14 01:36:04;;;;;;;28.23;7.40;;;;;;;;;;5049818;28;20025;-77
2022/06/14 01:38:29;;;;;;;23.67;8.10;;;;;;;;;;5049875;28;20533;-76
2022/06/14 01:41:10;;;;;;;29.52;8.02;;;;;;;;;;5049985;28;20056;-78
2022/06/14 01:43:42;;;;;;;22.90;8.27;;;;;;;;;;5051330;28;20483;-78
2022/06/14 01:46:26;;;;;;;11.38;7.82;;;;;;;;;;5049620;28;20037;-77
2022/06/14 01:51:50;;;;;;;13.80;7.70;;;;;;;;;;5051168;28;20082;-78
2022/06/14 01:51:52;;;;;;;10.00;7.70;;;;;;;;;;5050975;28;20044;-78
2022/06/14 01:54:18;;;;;;;8.82;7.93;;;;;;;;;;5048504;28;20024;-78
2022/06/14 01:56:54;;;;;;;8.77;7.88;;;;;;;;;;5046416;28;20055;-79
2022/06/14 01:59:19;;;;;;;;;;;;;;;;;;5025446;28;20106;-76
2022/06/14 02:01:54;;;;;;;8.33;7.53;;;;;;;;;;5035401;28;19921;-78
2022/06/14 02:04:38;;;;;;;8.88;7.97;;;;;;;;;;5047442;28;20391;-78
2022/06/14 02:07:24;;;;;;;9.90;8.13;;;;;;;;;;5041549;28;20376;-78
2022/06/14 02:09:55;;;;;;;11.63;8.20;;;;;;;;;;5042962;28;20048;-77
2022/06/14 02:12:23;;;;;;;9.15;8.18;;;;;;;;;;5041254;28;20493;-77
2022/06/14 02:14:51;;;;;;;10.73;9.07;;;;;;;;;;5041179;28;20024;-78
2022/06/14 02:17:26;;;;;;;12.02;8.60;;;;;;;;;;5020046;28;20244;-77
2022/06/14 02:19:59;;;;;;;10.05;8.40;;;;;;;;;;5032100;28;20033;-76
2022/06/14 02:22:27;;;;;;;10.15;8.68;;;;;;;;;;5044986;28;20057;-76
2022/06/14 02:24:57;;;;;;;9.52;8.63;;;;;;;;;;5039039;28;20460;-76
2022/06/14 02:27:25;;;;;;;14.82;9.15;;;;;;;;;;5043910;28;20057;-78
2022/06/14 02:29:52;;;;;;;11.85;8.30;;;;;;;;;;5045749;28;20032;-77
2022/06/14 02:32:19;;;;;;;8.75;7.85;;;;;;;;;;5045372;28;20055;-77
2022/06/14 02:34:49;;;;;;;9.07;8.18;;;;;;;;;;5045317;28;20040;-77
2022/06/14 02:37:20;;;;;;;10.02;8.15;;;;;;;;;;5045216;28;20040;-77
2022/06/14 02:39:56;;;;;;;9.23;7.80;;;;;;;;;;5026193;28;20406;-77
2022/06/14 02:42:21;;;;;;;;;;;;;;;;;;5046675;28;20033;-77
2022/06/14 02:44:47;;;;;;;8.40;7.40;;;;;;;;;;5042362;28;19999;-77
2022/06/14 02:47:18;;;;;;;8.82;7.93;;;;;;;;;;5038753;28;20418;-77
2022/06/14 02:49:45;;;;;;;8.32;7.53;;;;;;;;;;5040487;28;20032;-77
2022/06/14 02:52:11;;;;;;;8.75;7.85;;;;;;;;;;5036397;28;20028;-77
2022/06/14 02:54:48;;;;;;;7.97;7.18;;;;;;;;;;5041615;28;20071;-77
2022/06/14 02:57:32;;;;;;;9.13;8.02;;;;;;;;;;5042710;28;20465;-77
2022/06/14 03:00:08;;;;;;;9.32;8.52;;;;;;;;;;5039329;28;20045;-77
2022/06/14 03:02:36;;;;;;;9.52;8.63;;;;;;;;;;5020668;28;20217;-77
2022/06/14 03:05:20;;;;;;;9.23;8.32;;;;;;;;;;5038006;28;20034;-77
2022/06/14 03:08:04;;;;;;;9.32;8.43;;;;;;;;;;5031549;28;20033;-77
2022/06/14 03:10:37;;;;;;;8.23;7.43;;;;;;;;;;5035930;28;20041;-77
2022/06/14 03:13:25;;;;;;;8.27;7.38;;;;;;;;;;5038135;28;20120;-77
2022/06/14 03:16:10;;;;;;;7.68;6.97;;;;;;;;;;5032418;28;20416;-76
2022/06/14 03:18:44;;;;;;;8.35;7.55;;;;;;;;;;5032039;28;20517;-76
2022/06/14 03:21:14;;;;;;;8.60;7.80;;;;;;;;;;5054193;28;20029;-78
2022/06/14 03:23:49;;;;;;;8.50;7.65;;;;;;;;;;5039236;28;20337;-78
2022/06/14 03:26:32;;;;;;;10.38;7.07;;;;;;;;;;5030746;28;20037;-76
2022/06/14 03:29:07;;;;;;;8.77;6.90;;;;;;;;;;5052530;28;20127;-77
2022/06/14 03:31:34;;;;;;;7.68;6.45;;;;;;;;;;5040424;28;20036;-78
2022/06/14 03:34:09;;;;;;;8.98;7.13;;;;;;;;;;5029603;28;20022;-78
2022/06/14 03:36:34;;;;;;;7.25;6.35;;;;;;;;;;5054282;28;20099;-78
2022/06/14 03:39:03;;;;;;;7.30;6.60;;;;;;;;;;5035503;28;20049;-78
2022/06/14 03:41:30;;;;;;;8.65;6.40;;;;;;;;;;5053857;28;20043;-78
2022/06/14 03:43:56;;;;;;;8.13;6.63;;;;;;;;;;5054298;28;20546;-77
2022/06/14 03:46:21;;;;;;;6.75;6.03;;;;;;;;;;5027806;28;20500;-77
2022/06/14 03:48:51;;;;;;;7.82;6.30;;;;;;;;;;5036732;28;20032;-77
2022/06/14 03:51:36;;;;;;;8.43;5.93;;;;;;;;;;5049843;28;20033;-77
2022/06/14 03:54:01;;;;;;;9.68;6.25;;;;;;;;;;5035916;28;20037;-76
2022/06/14 03:56:33;;;;;;;8.93;6.25;;;;;;;;;;5044112;28;20024;-76
2022/06/14 03:59:19;;;;;;;7.28;6.57;;;;;;;;;;5048700;28;20045;-76
2022/06/14 04:01:50;;;;;;;10.73;7.03;;;;;;;;;;5044418;28;20049;-78
2022/06/14 04:04:18;;;;;;;9.43;6.55;;;;;;;;;;5039316;28;20381;-78
2022/06/14 04:06:50;;;;;;;6.90;6.18;;;;;;;;;;5033408;28;20028;-79
2022/06/14 04:09:15;;;;;;;8.27;6.22;;;;;;;;;;5039865;28;20178;-77
2022/06/14 04:11:41;;;;;;;10.77;6.10;;;;;;;;;;5045422;28;20139;-77
2022/06/14 04:14:12;;;;;;;7.00;6.00;;;;;;;;;;5041046;28;20017;-78
2022/06/14 04:16:56;;;;;;;8.18;5.13;;;;;;;;;;5032959;28;20512;-77
2022/06/14 04:19:30;;;;;;;7.18;5.45;;;;;;;;;;5026431;28;20033;-77
2022/06/14 04:21:57;;;;;;;6.63;5.40;;;;;;;;;;5049894;28;20048;-77
2022/06/14 04:24:25;;;;;;;7.47;5.70;;;;;;;;;;5037915;28;20389;-78
2022/06/14 04:27:04;;;;;;;6.35;5.65;;;;;;;;;;5050490;28;20115;-77
2022/06/14 04:29:35;;;;;;;8.35;5.85;;;;;;;;;;5031591;28;20037;-77
2022/06/14 04:32:19;;;;;;;8.82;5.88;;;;;;;;;;5043908;28;20044;-78
2022/06/14 04:34:47;;;;;;;9.40;5.68;;;;;;;;;;5050592;28;20135;-78
2022/06/14 04:37:19;;;;;;;9.10;5.82;;;;;;;;;;5017632;28;20428;-77
2022/06/14 04:39:46;;;;;;;6.68;5.97;;;;;;;;;;5038151;28;20552;-78
2022/06/14 04:42:19;;;;;;;8.18;5.57;;;;;;;;;;5052052;28;20021;-78
2022/06/14 04:44:45;;;;;;;8.23;5.93;;;;;;;;;;5033389;28;20064;-78
2022/06/14 04:47:21;;;;;;;8.38;5.90;;;;;;;;;;5040160;28;20060;-79
2022/06/14 04:49:46;;;;;;;;;;;;;;;;;;5043965;28;20112;-77
2022/06/14 04:52:28;;;;;;;8.30;5.57;;;;;;;;;;5043721;28;19996;-77
2022/06/14 04:54:58;;;;;;;11.57;6.18;;;;;;;;;;5048748;28;20029;-77
2022/06/14 04:57:37;;;;;;;9.20;6.40;;;;;;;;;;5033877;28;20048;-77
2022/06/14 05:00:08;;;;;;;9.55;6.60;;;;;;;;;;5049377;28;20055;-77
2022/06/14 05:02:42;;;;;;;8.70;5.85;;;;;;;;;;5050656;28;20037;-78
2022/06/14 05:05:08;;;;;;;7.70;5.95;;;;;;;;;;5050375;28;20104;-78
2022/06/14 05:07:34;;;;;;;11.45;9.55;;;;;;;;;;5040102;28;20112;-78
2022/06/14 05:10:01;;;;;;;11.27;6.47;;;;;;;;;;5047807;28;20029;-78
2022/06/14 05:12:46;;;;;;;10.20;6.60;;;;;;;;;;5033603;28;20052;-78
2022/06/14 05:15:19;;;;;;;10.57;6.65;;;;;;;;;;5048872;28;20444;-78
2022/06/14 05:17:47;;;;;;;9.40;5.97;;;;;;;;;;5021451;28;20488;-78
2022/06/14 05:20:15;;;;;;;9.05;6.28;;;;;;;;;;5038717;28;20487;-78
2022/06/14 05:22:44;;;;;;;11.38;6.80;;;;;;;;;;5033744;28;20040;-78
2022/06/14 05:25:09;;;;;;;8.02;6.15;;;;;;;;;;5046644;28;20025;-77
2022/06/14 05:27:43;;;;;;;12.32;7.00;;;;;;;;;;5042239;28;20484;-79
2022/06/14 05:30:28;;;;;;;8.70;6.85;;;;;;;;;;5046252;28;20041;-77
2022/06/14 05:32:53;;;;;;;12.00;6.80;;;;;;;;;;5037271;28;20040;-77
2022/06/14 05:35:24;;;;;;;7.50;6.70;;;;;;;;;;5035671;28;20025;-76
2022/06/14 05:37:54;;;;;;;11.35;7.10;;;;;;;;;;5043499;28;20034;-79
2022/06/14 05:40:25;;;;;;;13.25;6.88;;;;;;;;;;5046652;28;20025;-78
2022/06/14 05:42:52;;;;;;;10.02;6.93;;;;;;;;;;5032562;28;20029;-78
2022/06/14 05:45:18;;;;;;;10.38;7.05;;;;;;;;;;5047379;28;20043;-78
2022/06/14 05:47:45;;;;;;;11.35;7.28;;;;;;;;;;5016820;28;20025;-79
2022/06/14 05:50:12;;;;;;;12.32;6.60;;;;;;;;;;5024002;28;20049;-78
2022/06/14 05:52:37;;;;;;;9.30;6.32;;;;;;;;;;5039734;28;20089;-79
2022/06/14 05:55:14;;;;;;;8.65;6.47;;;;;;;;;;5043206;28;20024;-76
2022/06/14 05:57:39;;;;;;;;;;;;;;;;;;5045228;28;20178;-77
2022/06/14 06:00:06;;;;;;;7.27;5.87;;;;;;;;;;5042767;28;20023;-78
2022/06/14 06:02:36;;;;;;;11.30;6.45;;;;;;;;;;5046273;28;20419;-79
2022/06/14 06:05:05;;;;;;;6.85;6.15;;;;;;;;;;5041412;28;20411;-78
2022/06/14 06:07:35;;;;;;;9.20;6.45;;;;;;;;;;5046389;28;20037;-78
2022/06/14 06:10:05;;;;;;;8.13;5.80;;;;;;;;;;5041346;28;20405;-79
2022/06/14 06:12:31;;;;;;;9.20;6.25;;;;;;;;;;5046003;28;20025;-78
2022/06/14 06:15:00;;;;;;;9.02;5.85;;;;;;;;;;5025965;28;20033;-78
2022/06/14 06:17:29;;;;;;;8.68;5.82;;;;;;;;;;5040235;28;20443;-79
2022/06/14 06:19:54;;;;;;;7.18;5.47;;;;;;;;;;5025783;28;20033;-78
2022/06/14 06:22:34;;;;;;;6.35;5.75;;;;;;;;;;5026510;28;20059;-78
2022/06/14 06:25:00;;;;;;;6.68;5.57;;;;;;;;;;5046164;28;20039;-79
2022/06/14 06:27:37;;;;;;;7.78;5.10;;;;;;;;;;5042379;28;20025;-78
2022/06/14 06:30:14;;;;;;;7.35;5.53;;;;;;;;;;5046248;28;20061;-78
2022/06/14 06:32:39;;;;;;;9.30;5.38;;;;;;;;;;5042578;28;20064;-79
2022/06/14 06:35:05;;;;;;;6.45;4.50;;;;;;;;;;5029743;28;20056;-77
2022/06/14 06:37:33;;;;;;;5.50;3.92;;;;;;;;;;5042874;28;20048;-78
2022/06/14 06:39:59;;;;;;;5.80;4.13;;;;;;;;;;5045783;28;20024;-78
2022/06/14 06:42:25;;;;;;;7.00;3.90;;;;;;;;;;5027837;28;20043;-78
2022/06/14 06:44:51;;;;;;;6.03;4.60;;;;;;;;;;5043906;28;20116;-79
2022/06/14 06:47:28;;;;;;;6.97;3.80;;;;;;;;;;5037779;28;20458;-79
2022/06/14 06:49:59;;;;;;;4.35;2.80;;;;;;;;;;5020999;28;20029;-81
2022/06/14 06:52:43;;;;;;;4.45;2.60;;;;;;;;;;5039862;28;20061;-78
2022/06/14 06:55:10;;;;;;;4.85;2.95;;;;;;;;;;5043092;28;20025;-78
2022/06/14 06:57:36;;;;;;;3.60;3.05;;;;;;;;;;5033436;28;20361;-77
2022/06/14 07:00:01;;;;;;;5.97;3.13;;;;;;;;;;5034241;28;20052;-78
2022/06/14 07:02:30;;;;;;;6.72;3.17;;;;;;;;;;5031487;28;20373;-77
2022/06/14 07:05:05;;;;;;;4.50;2.50;;;;;;;;;;5044388;28;20532;-78
2022/06/14 07:07:45;;;;;;;4.22;2.40;;;;;;;;;;5018644;28;20116;-78
2022/06/14 07:10:19;;;;;;;2.78;2.30;;;;;;;;;;5023228;28;20038;-78
2022/06/14 07:12:48;;;;;;;6.68;2.35;;;;;;;;;;5041803;28;20666;-78
2022/06/14 07:15:27;;;;;;;3.42;2.00;;;;;;;;;;5034685;28;20075;-78
2022/06/14 07:18:04;;;;;;;3.75;2.10;;;;;;;;;;5030852;28;20120;-78
2022/06/14 07:20:49;;;;;;;3.13;2.40;;;;;;;;;;5048391;28;20040;-77
2022/06/14 07:23:30;;;;;;;4.20;2.30;;;;;;;;;;5053690;28;20395;-79
2022/06/14 07:25:55;;;;;;;6.10;2.15;;;;;;;;;;5051020;28;20549;-78
2022/06/14 07:28:28;;;;;;;4.28;2.17;;;;;;;;;;5052582;28;20033;-81
2022/06/14 07:30:58;;;;;;;5.47;1.90;;;;;;;;;;5051431;28;20044;-81
2022/06/14 07:33:24;;;;;;;4.97;2.10;;;;;;;;;;5053085;28;20033;-80
2022/06/14 07:35:51;;;;;;;4.20;1.95;;;;;;;;;;5051590;28;20047;-79
2022/06/14 07:38:19;;;;;;;3.28;1.98;;;;;;;;;;5052503;28;20040;-79
2022/06/14 07:41:00;;;;;;;5.90;2.00;;;;;;;;;;5052287;28;20032;-79
2022/06/14 07:43:28;;;;;;;4.72;1.73;;;;;;;;;;5053097;28;20380;-77
2022/06/14 07:45:53;;;;;;;3.38;2.15;;;;;;;;;;5034242;28;20171;-79
2022/06/14 07:48:40;;;;;;;3.28;1.73;;;;;;;;;;5033177;28;20132;-78
2022/06/14 07:51:08;;;;;;;3.10;1.75;;;;;;;;;;5033843;28;20060;-78
2022/06/14 07:53:39;;;;;;;4.85;1.75;;;;;;;;;;5016090;28;20017;-78
2022/06/14 07:56:05;;;;;;;5.72;2.70;;;;;;;;;;5015620;28;20048;-80
2022/06/14 07:58:31;;;;;;;3.42;2.10;;;;;;;;;;5033987;28;20025;-80
2022/06/14 08:01:07;;;;;;;5.03;1.95;;;;;;;;;;5029194;28;20068;-79
2022/06/14 08:03:47;;;;;;;3.75;2.17;;;;;;;;;;5025652;28;20048;-80
2022/06/14 08:06:13;;;;;;;3.95;1.83;;;;;;;;;;5032567;28;20037;-79
2022/06/14 08:08:40;;;;;;;3.13;1.67;;;;;;;;;;5016755;28;20040;-79
2022/06/14 08:11:17;;;;;;;3.50;1.60;;;;;;;;;;5040089;28;20041;-77
2022/06/14 08:13:45;;;;;;;5.72;1.83;;;;;;;;;;5025543;28;20396;-78
2022/06/14 08:16:10;;;;;;;4.32;2.13;;;;;;;;;;5013896;28;20025;-78
2022/06/14 08:18:41;;;;;;;4.18;2.20;;;;;;;;;;5031555;28;20029;-77
2022/06/14 08:21:12;;;;;;;2.22;1.80;;;;;;;;;;5018462;28;20496;-78
2022/06/14 08:23:45;;;;;;;2.28;1.85;;;;;;;;;;5012988;28;20037;-78
2022/06/14 08:26:22;;;;;;;2.60;1.60;;;;;;;;;;5033906;28;20029;-78
2022/06/14 08:28:48;;;;;;;3.13;1.95;;;;;;;;;;5031636;28;20041;-79
2022/06/14 08:31:13;;;;;;;3.40;2.00;;;;;;;;;;5021754;28;20029;-81
2022/06/14 08:33:47;;;;;;;2.95;1.70;;;;;;;;;;5024101;28;20042;-80
2022/06/14 08:36:26;;;;;;;3.75;1.90;;;;;;;;;;5031219;28;20113;-79
2022/06/14 08:38:57;;;;;;;3.50;2.00;;;;;;;;;;5017981;28;20032;-79
2022/06/14 08:41:41;;;;;;;4.38;2.13;;;;;;;;;;5048070;28;20037;-80
2022/06/14 08:44:09;;;;;;;4.75;1.90;;;;;;;;;;5051343;28;20487;-79
2022/06/14 08:46:42;;;;;;;2.83;1.77;;;;;;;;;;5033369;28;20036;-80
2022/06/14 08:49:08;;;;;;;2.95;1.90;;;;;;;;;;5034905;28;20111;-79
2022/06/14 08:51:39;;;;;;;3.58;2.00;;;;;;;;;;5049323;28;20116;-80
2022/06/14 08:54:21;;;;;;;5.75;2.17;;;;;;;;;;5050411;28;20043;-78
2022/06/14 08:56:53;;;;;;;4.78;1.90;;;;;;;;;;5047569;28;20025;-78
2022/06/14 08:59:28;;;;;;;5.75;2.20;;;;;;;;;;5050975;28;20060;-78
2022/06/14 09:02:05;;;;;;;5.70;2.20;;;;;;;;;;5033010;28;20385;-78
2022/06/14 09:04:35;;;;;;;5.97;2.42;;;;;;;;;;5032217;28;20037;-79
2022/06/14 09:07:17;;;;;;;3.35;1.98;;;;;;;;;;5039433;28;20084;-78
2022/06/14 09:09:42;;;;;;;6.32;2.53;;;;;;;;;;5005036;28;20039;-80
2022/06/14 09:12:26;;;;;;;3.03;2.00;;;;;;;;;;5025641;28;20030;-80
2022/06/14 09:15:21;;;;;;;4.25;2.10;;;;;;;;;;5027453;28;20088;-78
2022/06/14 09:17:50;;;;;;;4.03;2.28;;;;;;;;;;4975013;28;20038;-79
2022/06/14 09:20:21;;;;;;;4.65;2.30;;;;;;;;;;5041171;28;20078;-78
2022/06/14 09:22:47;;;;;;;5.70;2.90;;;;;;;;;;5051927;28;20027;-79
2022/06/14 09:25:12;;;;;;;3.13;2.20;;;;;;;;;;5050682;28;20454;-79
2022/06/14 09:27:37;;;;;;;3.75;2.25;;;;;;;;;;5050900;28;20029;-78
2022/06/14 09:30:07;;;;;;;5.20;2.45;;;;;;;;;;5051697;28;20052;-79
2022/06/14 09:32:32;;;;;;;3.35;2.38;;;;;;;;;;5032974;28;20081;-79
2022/06/14 09:35:01;;;;;;;3.25;2.38;;;;;;;;;;5043894;28;20109;-78
2022/06/14 09:37:45;;;;;;;4.07;2.15;;;;;;;;;;5043980;28;20052;-78
2022/06/14 09:40:20;;;;;;;5.85;2.38;;;;;;;;;;5041053;28;20036;-79
2022/06/14 09:43:05;;;;;;;4.93;2.13;;;;;;;;;;5047245;28;20476;-81
2022/06/14 09:45:37;;;;;;;3.88;2.08;;;;;;;;;;5050011;28;20545;-79
2022/06/14 09:48:17;;;;;;;6.28;2.60;;;;;;;;;;5045836;28;20353;-80
2022/06/14 09:50:49;;;;;;;8.40;2.22;;;;;;;;;;5049854;28;20033;-78
2022/06/14 09:53:23;;;;;;;5.50;2.05;;;;;;;;;;5040490;28;20064;-78
2022/06/14 09:55:52;;;;;;;3.17;1.80;;;;;;;;;;5042575;28;20063;-81
2022/06/14 09:58:22;;;;;;;5.28;2.20;;;;;;;;;;5027297;28;20025;-78
2022/06/14 10:00:53;;;;;;;6.40;2.30;;;;;;;;;;5050093;28;20525;-78
2022/06/14 10:03:38;;;;;;;4.68;2.38;;;;;;;;;;5044275;28;20486;-79
2022/06/14 10:06:23;;;;;;;3.75;1.90;;;;;;;;;;5032186;28;20037;-79
2022/06/14 10:09:08;;;;;;;8.18;2.92;;;;;;;;;;5027098;28;20045;-79
2022/06/14 10:11:42;;;;;;;4.95;2.30;;;;;;;;;;5036257;28;20069;-78
2022/06/14 10:14:19;;;;;;;4.32;2.25;;;;;;;;;;5038746;28;20554;-80
2022/06/14 10:16:47;;;;;;;3.75;2.40;;;;;;;;;;5042779;28;20037;-79
2022/06/14 10:19:26;;;;;;;4.82;2.10;;;;;;;;;;5037008;28;20025;-78
2022/06/14 10:21:59;;;;;;;3.80;2.03;;;;;;;;;;5023519;28;20089;-78
2022/06/14 10:24:27;;;;;;;2.67;2.15;;;;;;;;;;5029271;28;20041;-79
2022/06/14 10:29:49;;;;;;;2.75;1.92;;;;;;;;;;5042760;28;20445;-79
2022/06/14 10:32:33;;;;;;;3.00;1.90;;;;;;;;;;5045005;28;20029;-78
2022/06/14 10:35:01;;;;;;;6.32;2.53;;;;;;;;;;5049458;28;20555;-80
2022/06/14 10:37:45;;;;;;;5.03;2.30;;;;;;;;;;5026641;28;20030;-79
2022/06/14 10:40:14;;;;;;;4.35;2.00;;;;;;;;;;5041748;28;20369;-78
2022/06/14 10:42:57;;;;;;;3.28;1.98;;;;;;;;;;5042088;28;20021;-77
2022/06/14 10:45:29;;;;;;;6.13;2.28;;;;;;;;;;5046307;28;20102;-79
2022/06/14 10:48:10;;;;;;;3.35;2.10;;;;;;;;;;5037888;28;20484;-78
2022/06/14 10:50:36;;;;;;;5.00;2.30;;;;;;;;;;5038207;28;20124;-80
2022/06/14 10:53:27;;;;;;;4.30;1.98;;;;;;;;;;5044720;28;20049;-78
2022/06/14 10:56:31;;;;;;;5.40;1.90;;;;;;;;;;5026326;28;20515;-80
2022/06/14 10:58:57;;;;;;;4.18;2.05;;;;;;;;;;5031108;28;20049;-80
2022/06/14 11:01:41;;;;;;;4.35;2.10;;;;;;;;;;5035240;28;20048;-78
2022/06/14 11:04:18;;;;;;;2.47;2.00;;;;;;;;;;5028820;28;20463;-79
2022/06/14 11:06:55;;;;;;;7.13;2.17;;;;;;;;;;5037874;28;20037;-79
2022/06/14 11:09:39;;;;;;;7.45;2.10;;;;;;;;;;5035628;28;20026;-79
2022/06/14 11:12:08;;;;;;;3.90;1.92;;;;;;;;;;5035232;28;20041;-78
2022/06/14 11:14:45;;;;;;;4.40;2.15;;;;;;;;;;5035264;28;20018;-79
2022/06/14 11:17:29;;;;;;;5.82;2.10;;;;;;;;;;5034366;28;20040;-78
2022/06/14 11:20:07;;;;;;;5.15;2.35;;;;;;;;;;5035737;28;20065;-79
2022/06/14 11:22:35;;;;;;;5.82;2.00;;;;;;;;;;5047733;28;20516;-77
2022/06/14 11:25:14;;;;;;;6.38;2.25;;;;;;;;;;5050724;28;20028;-78
2022/06/14 11:27:39;;;;;;;3.08;2.13;;;;;;;;;;5040548;28;20022;-79
2022/06/14 11:30:18;;;;;;;2.65;1.90;;;;;;;;;;5034948;28;20074;-78
2022/06/14 11:32:52;;;;;;;5.28;2.13;;;;;;;;;;5033223;28;20040;-79
2022/06/14 11:35:33;;;;;;;4.30;2.00;;;;;;;;;;5033639;28;20152;-79
2022/06/14 11:37:59;;;;;;;3.85;2.10;;;;;;;;;;5031605;28;20029;-80
2022/06/14 11:40:28;;;;;;;2.65;1.83;;;;;;;;;;5032514;28;20040;-80
2022/06/14 11:43:00;;;;;;;4.10;2.00;;;;;;;;;;5034785;28;20056;-77
2022/06/14 11:45:46;;;;;;;4.25;2.17;;;;;;;;;;5033491;28;20041;-79
2022/06/14 11:48:31;;;;;;;5.95;2.47;;;;;;;;;;5010423;28;20513;-79
2022/06/14 11:51:09;;;;;;;4.20;2.50;;;;;;;;;;5033346;28;20551;-78
2022/06/14 11:53:50;;;;;;;5.55;2.40;;;;;;;;;;5032984;28;20038;-79
2022/06/14 11:56:18;;;;;;;9.45;2.80;;;;;;;;;;5032663;28;20060;-80
2022/06/14 11:59:06;;;;;;;4.00;2.78;;;;;;;;;;5034112;28;20034;-78
2022/06/14 12:01:40;;;;;;;5.07;2.58;;;;;;;;;;5032962;28;20518;-80
2022/06/14 12:04:27;;;;;;;3.92;2.42;;;;;;;;;;5026361;28;20408;-79
2022/06/14 12:07:16;;;;;;;6.63;2.47;;;;;;;;;;5027925;28;20041;-79
2022/06/14 12:10:01;;;;;;;5.80;2.50;;;;;;;;;;5028445;28;20045;-79
2022/06/14 12:12:41;;;;;;;6.03;2.03;;;;;;;;;;5032961;28;20048;-78
2022/06/14 12:15:11;;;;;;;4.32;2.05;;;;;;;;;;5034058;28;20607;-78
2022/06/14 12:17:46;;;;;;;3.13;2.10;;;;;;;;;;5015199;28;20519;-78
2022/06/14 12:20:13;;;;;;;5.30;1.90;;;;;;;;;;5046896;28;20048;-80
2022/06/14 12:22:51;;;;;;;6.03;1.80;;;;;;;;;;5051655;28;20404;-82
2022/06/14 12:28:08;;;;;;;3.05;1.75;;;;;;;;;;5023745;28;20554;-78
2022/06/14 12:30:33;;;;;;;3.47;1.70;;;;;;;;;;5044754;28;20090;-78
2022/06/14 12:33:02;;;;;;;6.38;1.90;;;;;;;;;;5035186;28;20506;-77
2022/06/14 12:35:28;;;;;;;2.70;1.80;;;;;;;;;;5043278;28;20021;-79
2022/06/14 12:38:02;;;;;;;2.97;1.95;;;;;;;;;;5033864;28;20106;-79
2022/06/14 12:40:30;;;;;;;5.60;2.17;;;;;;;;;;5039896;28;20411;-80
2022/06/14 12:43:02;;;;;;;5.22;2.15;;;;;;;;;;5040984;28;20112;-79
2022/06/14 12:45:38;;;;;;;2.70;2.00;;;;;;;;;;5032377;28;20032;-79
2022/06/14 12:48:22;;;;;;;4.00;2.10;;;;;;;;;;5040351;28;20029;-82
2022/06/14 12:50:52;;;;;;;2.53;1.70;;;;;;;;;;5040931;28;20029;-79
2022/06/14 12:53:47;;;;;;;4.80;2.30;;;;;;;;;;5041143;28;20494;-78
2022/06/14 12:56:27;;;;;;;4.20;1.90;;;;;;;;;;5034810;28;20040;-78
2022/06/14 12:59:11;;;;;;;3.10;1.90;;;;;;;;;;5028778;28;20393;-79
2022/06/14 13:01:37;;;;;;;2.83;2.05;;;;;;;;;;5032859;28;20033;-77
2022/06/14 13:04:12;;;;;;;9.55;2.00;;;;;;;;;;5036508;28;20032;-78
2022/06/14 13:06:40;;;;;;;6.78;1.70;;;;;;;;;;5032212;28;20120;-79
2022/06/14 13:09:10;;;;;;;8.60;1.63;;;;;;;;;;5017126;28;20092;-79
2022/06/14 13:11:44;;;;;;;10.23;1.80;;;;;;;;;;5037206;28;20481;-79
2022/06/14 13:14:10;;;;;;;9.50;1.65;;;;;;;;;;5035380;28;20065;-81
2022/06/14 13:16:42;;;;;;;6.78;1.50;;;;;;;;;;5034881;28;20022;-79
2022/06/14 13:19:20;;;;;;;6.72;1.92;;;;;;;;;;5036646;28;20025;-79
2022/06/14 13:21:52;;;;;;;6.50;1.77;;;;;;;;;;5050795;28;20036;-77
2022/06/14 13:24:36;;;;;;;6.35;1.80;;;;;;;;;;5037357;28;20029;-79
2022/06/14 13:27:20;;;;;;;4.05;2.00;;;;;;;;;;5051290;28;20052;-81
2022/06/14 13:29:45;;;;;;;3.55;1.70;;;;;;;;;;5031436;28;20032;-79
2022/06/14 13:32:17;;;;;;;4.03;2.22;;;;;;;;;;5050855;28;20039;-79
2022/06/14 13:34:47;;;;;;;6.15;1.98;;;;;;;;;;5045151;28;20037;-77
2022/06/14 13:37:31;;;;;;;5.40;2.10;;;;;;;;;;5044931;28;20024;-78
2022/06/14 13:40:16;;;;;;;4.63;1.88;;;;;;;;;;5062903;28;20033;-78
2022/06/14 13:42:42;;;;;;;4.05;1.88;;;;;;;;;;5051212;28;20099;-80
2022/06/14 13:45:26;;;;;;;2.47;1.75;;;;;;;;;;5050646;28;20020;-78
2022/06/14 13:47:54;;;;;;;4.72;2.30;;;;;;;;;;5050881;28;20025;-80
2022/06/14 13:50:22;;;;;;;5.20;2.40;;;;;;;;;;5050181;28;20039;-79
2022/06/14 13:52:49;;;;;;;4.20;2.20;;;;;;;;;;5050921;28;20029;-78
2022/06/14 13:55:14;;;;;;;4.68;2.53;;;;;;;;;;5050625;28;20384;-78
2022/06/14 13:57:54;;;;;;;5.68;2.80;;;;;;;;;;5049363;28;20025;-80
2022/06/14 14:00:26;;;;;;;8.38;2.95;;;;;;;;;;5042315;28;20467;-80
2022/06/14 14:02:58;;;;;;;4.65;2.40;;;;;;;;;;5046030;28;20029;-78
2022/06/14 14:05:31;;;;;;;4.65;2.92;;;;;;;;;;5026999;28;20033;-79
2022/06/14 14:08:36;;;;;;;6.07;2.70;;;;;;;;;;5048591;28;20060;-80
2022/06/14 14:11:08;;;;;;;3.33;2.10;;;;;;;;;;5024163;28;20094;-79
2022/06/14 14:13:54;;;;;;;4.32;2.67;;;;;;;;;;5013847;28;20033;-79
2022/06/14 14:16:25;;;;;;;5.13;2.58;;;;;;;;;;5030997;28;20083;-79
2022/06/14 14:19:09;;;;;;;4.47;2.40;;;;;;;;;;5033327;28;20480;-79
2022/06/14 14:21:35;;;;;;;4.93;2.75;;;;;;;;;;5042240;28;20413;-79
2022/06/14 14:24:10;;;;;;;5.65;2.65;;;;;;;;;;5045852;28;20029;-79
2022/06/14 14:26:36;;;;;;;4.38;3.10;;;;;;;;;;5040258;28;20053;-78
2022/06/14 14:29:04;;;;;;;8.52;3.03;;;;;;;;;;5043281;28;20393;-80
2022/06/14 14:31:49;;;;;;;3.67;2.40;;;;;;;;;;5033325;28;20041;-79
2022/06/14 14:34:20;;;;;;;7.57;2.70;;;;;;;;;;5040422;28;20034;-78
2022/06/14 14:36:55;;;;;;;5.15;3.03;;;;;;;;;;5038868;28;20030;-77
2022/06/14 14:39:33;;;;;;;4.25;2.97;;;;;;;;;;5040114;28;20029;-79
2022/06/14 14:41:58;;;;;;;5.47;3.50;;;;;;;;;;5028915;28;20037;-79
2022/06/14 14:44:36;;;;;;;4.53;3.40;;;;;;;;;;5042657;28;20100;-78
2022/06/14 14:47:05;;;;;;;5.28;3.65;;;;;;;;;;5040240;28;20065;-77
2022/06/14 14:49:34;;;;;;;4.90;3.35;;;;;;;;;;5032152;28;20033;-79
2022/06/14 14:52:06;;;;;;;4.68;3.38;;;;;;;;;;5031752;28;20163;-79
2022/06/14 14:54:44;;;;;;;5.78;3.00;;;;;;;;;;5032198;28;20028;-78
2022/06/14 14:57:28;;;;;;;4.03;2.90;;;;;;;;;;5031922;28;20021;-81
2022/06/14 14:59:56;;;;;;;4.32;3.13;;;;;;;;;;5031920;28;20497;-79
2022/06/14 15:05:24;;;;;;;4.07;2.78;;;;;;;;;;5026417;28;20091;-80
2022/06/14 15:07:52;;;;;;;4.70;2.97;;;;;;;;;;5031643;28;20033;-78
2022/06/14 15:10:27;;;;;;;5.88;3.10;;;;;;;;;;5031894;28;20029;-79
2022/06/14 15:12:55;;;;;;;5.95;3.47;;;;;;;;;;5031895;28;20090;-78
2022/06/14 15:15:27;;;;;;;5.13;3.25;;;;;;;;;;5033348;28;20036;-78
2022/06/14 15:20:54;;;;;;;5.80;3.90;;;;;;;;;;5039607;28;20120;-80
2022/06/14 15:23:29;;;;;;;7.13;3.90;;;;;;;;;;5054798;28;20405;-79
2022/06/14 15:25:55;;;;;;;7.15;4.75;;;;;;;;;;5048656;28;20037;-79